UAL672 KSFO-LEBL
Flight info
| Callsign | UAL672 |
|---|---|
| Flight time | N/A |
| Altitude | 33000 |
| Route | SNTNA2 ORRCA Q120 GALLI DCT PARZZ Q138 DKOTA/N0488F350 Q138 SSM DCT OBRET DCT TAFFY DCT JOOPY/M084F370 DCT 4830N050W 49N040W 49N030W 4830N020W 48N015W DCT BUNAV/N0481F370 DCT LAFOP DCT PEPET DCT LMB DCT ASPET DCT PUMAL |
| Aircraft | B772/H-SDE2E3FGHIJ5LORVWXY/LB1D1 |
Departure
| Time | 2026-04-30 20:01 |
|---|---|
| Airport | San Francisco International Airport (KSFO) |
Arrival
| Time | N/A |
|---|---|
| Airport | Josep Tarradellas Barcelona-El Prat Airport (LEBL) |
| Time | Latitude | Longitude | Altitude | Speed | Heading |
|---|---|---|---|---|---|
| 2026-04-30 18:52 | 37.61891 | -122.39256 | 26 ft | 0 kts | 208° |
| 2026-04-30 19:40 | 37.61902 | -122.39248 | 26 ft | 4 kts | 208° |
| 2026-04-30 19:40 | 37.61926 | -122.39233 | 26 ft | 4 kts | 212° |
| 2026-04-30 19:41 | 37.61945 | -122.39211 | 25 ft | 4 kts | 246° |
| 2026-04-30 19:41 | 37.61948 | -122.39182 | 25 ft | 4 kts | 292° |
| 2026-04-30 19:41 | 37.61946 | -122.39174 | 26 ft | 0 kts | 298° |
| 2026-04-30 19:50 | 37.61951 | -122.39187 | 26 ft | 6 kts | 298° |
| 2026-04-30 19:50 | 37.61997 | -122.39251 | 26 ft | 13 kts | 344° |
| 2026-04-30 19:51 | 37.62083 | -122.39204 | 26 ft | 14 kts | 29° |
| 2026-04-30 19:51 | 37.62168 | -122.39147 | 26 ft | 14 kts | 28° |
| 2026-04-30 19:51 | 37.62235 | -122.39066 | 26 ft | 14 kts | 66° |
| 2026-04-30 19:51 | 37.62261 | -122.38950 | 26 ft | 14 kts | 80° |
| 2026-04-30 19:52 | 37.62232 | -122.38839 | 26 ft | 14 kts | 119° |
| 2026-04-30 19:52 | 37.62187 | -122.38732 | 26 ft | 14 kts | 117° |
| 2026-04-30 19:52 | 37.62143 | -122.38625 | 26 ft | 14 kts | 118° |
| 2026-04-30 19:52 | 37.62097 | -122.38519 | 25 ft | 14 kts | 118° |
| 2026-04-30 19:53 | 37.62053 | -122.38413 | 25 ft | 14 kts | 117° |
| 2026-04-30 19:53 | 37.62008 | -122.38306 | 26 ft | 14 kts | 118° |
| 2026-04-30 19:53 | 37.61964 | -122.38199 | 26 ft | 14 kts | 117° |
| 2026-04-30 19:53 | 37.61919 | -122.38092 | 25 ft | 14 kts | 118° |
| 2026-04-30 19:54 | 37.61875 | -122.37987 | 26 ft | 14 kts | 118° |
| 2026-04-30 19:54 | 37.61832 | -122.37880 | 26 ft | 14 kts | 112° |
| 2026-04-30 19:54 | 37.61797 | -122.37767 | 26 ft | 14 kts | 111° |
| 2026-04-30 19:54 | 37.61762 | -122.37655 | 26 ft | 14 kts | 110° |
| 2026-04-30 19:55 | 37.61728 | -122.37542 | 26 ft | 14 kts | 112° |
| 2026-04-30 19:55 | 37.61686 | -122.37435 | 26 ft | 14 kts | 117° |
| 2026-04-30 19:55 | 37.61641 | -122.37328 | 30 ft | 14 kts | 117° |
| 2026-04-30 19:55 | 37.61598 | -122.37221 | 26 ft | 14 kts | 117° |
| 2026-04-30 19:56 | 37.61553 | -122.37114 | 27 ft | 14 kts | 118° |
| 2026-04-30 19:56 | 37.61507 | -122.37009 | 32 ft | 14 kts | 119° |
| 2026-04-30 19:56 | 37.61454 | -122.36907 | 29 ft | 15 kts | 129° |
| 2026-04-30 19:56 | 37.61382 | -122.36803 | 26 ft | 16 kts | 128° |
| 2026-04-30 19:57 | 37.61325 | -122.36683 | 32 ft | 16 kts | 118° |
| 2026-04-30 19:57 | 37.61272 | -122.36560 | 28 ft | 16 kts | 118° |
| 2026-04-30 19:57 | 37.61226 | -122.36449 | 32 ft | 13 kts | 117° |
| 2026-04-30 19:57 | 37.61183 | -122.36344 | 26 ft | 13 kts | 118° |
| 2026-04-30 19:58 | 37.61138 | -122.36241 | 29 ft | 13 kts | 118° |
| 2026-04-30 19:58 | 37.61094 | -122.36137 | 26 ft | 13 kts | 118° |
| 2026-04-30 19:58 | 37.61052 | -122.36032 | 28 ft | 13 kts | 111° |
| 2026-04-30 19:58 | 37.61077 | -122.35928 | 31 ft | 8 kts | 45° |
| 2026-04-30 19:59 | 37.61093 | -122.35912 | 29 ft | 0 kts | 37° |
| 2026-04-30 19:59 | 37.61106 | -122.35901 | 29 ft | 8 kts | 31° |
| 2026-04-30 19:59 | 37.61215 | -122.35943 | 26 ft | 0 kts | 298° |
| 2026-04-30 20:00 | 37.61216 | -122.35945 | 29 ft | 4 kts | 298° |
| 2026-04-30 20:00 | 37.61308 | -122.36161 | 26 ft | 65 kts | 298° |
| 2026-04-30 20:00 | 37.61641 | -122.36958 | 26 ft | 138 kts | 297° |
| 2026-04-30 20:00 | 37.62198 | -122.38265 | 122 ft | 191 kts | 298° |
| 2026-04-30 20:01 | 37.63535 | -122.41351 | 1750 ft | 205 kts | 297° |
| 2026-04-30 20:01 | 37.64188 | -122.42921 | 2514 ft | 201 kts | 298° |
| 2026-04-30 20:01 | 37.64847 | -122.44483 | 3073 ft | 203 kts | 300° |
| 2026-04-30 20:02 | 37.65981 | -122.47122 | 3826 ft | 215 kts | 300° |
| 2026-04-30 20:02 | 37.66736 | -122.48859 | 3959 ft | 237 kts | 300° |
| 2026-04-30 20:03 | 37.68899 | -122.52243 | 4385 ft | 261 kts | 340° |
| 2026-04-30 20:03 | 37.70691 | -122.52575 | 4827 ft | 260 kts | 1° |
| 2026-04-30 20:03 | 37.72530 | -122.52564 | 4994 ft | 271 kts | 359° |
| 2026-04-30 20:03 | 37.74431 | -122.52621 | 4970 ft | 272 kts | 359° |
| 2026-04-30 20:04 | 37.76313 | -122.52692 | 4965 ft | 269 kts | 359° |
| 2026-04-30 20:04 | 37.78173 | -122.52749 | 4972 ft | 265 kts | 2° |
| 2026-04-30 20:04 | 37.79933 | -122.52178 | 4979 ft | 267 kts | 33° |
| 2026-04-30 20:05 | 37.82066 | -122.48404 | 5934 ft | 272 kts | 66° |
| 2026-04-30 20:05 | 37.82830 | -122.46199 | 6532 ft | 274 kts | 66° |
| 2026-04-30 20:05 | 37.84601 | -122.41914 | 7574 ft | 279 kts | 51° |
| 2026-04-30 20:06 | 37.85864 | -122.40045 | 8193 ft | 279 kts | 47° |
| 2026-04-30 20:06 | 37.87180 | -122.38226 | 8792 ft | 280 kts | 47° |
| 2026-04-30 20:06 | 37.88501 | -122.36409 | 9386 ft | 282 kts | 47° |
| 2026-04-30 20:06 | 37.89837 | -122.34556 | 9923 ft | 285 kts | 47° |
| 2026-04-30 20:07 | 37.91172 | -122.32685 | 10401 ft | 291 kts | 47° |
| 2026-04-30 20:07 | 37.92573 | -122.30709 | 10511 ft | 310 kts | 47° |
| 2026-04-30 20:07 | 37.95618 | -122.26372 | 10729 ft | 349 kts | 47° |
| 2026-04-30 20:08 | 37.97264 | -122.24010 | 11011 ft | 362 kts | 47° |
| 2026-04-30 20:08 | 37.98939 | -122.21596 | 11552 ft | 368 kts | 47° |
| 2026-04-30 20:08 | 38.00639 | -122.19145 | 12171 ft | 373 kts | 47° |
| 2026-04-30 20:08 | 38.02362 | -122.16652 | 12686 ft | 379 kts | 47° |
| 2026-04-30 20:09 | 38.04110 | -122.14121 | 13211 ft | 385 kts | 47° |
| 2026-04-30 20:09 | 38.05885 | -122.11549 | 13751 ft | 390 kts | 47° |
| 2026-04-30 20:09 | 38.09452 | -122.06373 | 14815 ft | 394 kts | 47° |
| 2026-04-30 20:10 | 38.13079 | -122.01098 | 15881 ft | 399 kts | 47° |
| 2026-04-30 20:10 | 38.14912 | -121.98429 | 16385 ft | 402 kts | 46° |
| 2026-04-30 20:10 | 38.16756 | -121.95743 | 16877 ft | 405 kts | 46° |
| 2026-04-30 20:11 | 38.20477 | -121.90315 | 17840 ft | 410 kts | 46° |
| 2026-04-30 20:11 | 38.22355 | -121.87575 | 18296 ft | 413 kts | 46° |
| 2026-04-30 20:11 | 38.24248 | -121.84809 | 18648 ft | 416 kts | 46° |
| 2026-04-30 20:12 | 38.28065 | -121.79221 | 19427 ft | 421 kts | 46° |
| 2026-04-30 20:12 | 38.29992 | -121.76398 | 19806 ft | 423 kts | 46° |
| 2026-04-30 20:12 | 38.31924 | -121.73564 | 20184 ft | 426 kts | 46° |
| 2026-04-30 20:13 | 38.33875 | -121.70700 | 20530 ft | 429 kts | 46° |
| 2026-04-30 20:13 | 38.35839 | -121.67815 | 20867 ft | 432 kts | 46° |
| 2026-04-30 20:13 | 38.37812 | -121.64913 | 21206 ft | 435 kts | 46° |
| 2026-04-30 20:13 | 38.39799 | -121.61987 | 21557 ft | 438 kts | 46° |
| 2026-04-30 20:14 | 38.41795 | -121.59047 | 21890 ft | 440 kts | 46° |
| 2026-04-30 20:14 | 38.43803 | -121.56086 | 22253 ft | 443 kts | 46° |
| 2026-04-30 20:14 | 38.45805 | -121.53078 | 22584 ft | 446 kts | 47° |
| 2026-04-30 20:14 | 38.47720 | -121.50014 | 22944 ft | 449 kts | 49° |
| 2026-04-30 20:15 | 38.49657 | -121.46810 | 23277 ft | 452 kts | 49° |
| 2026-04-30 20:15 | 38.51571 | -121.43614 | 23604 ft | 454 kts | 49° |
| 2026-04-30 20:15 | 38.53499 | -121.40398 | 23877 ft | 457 kts | 49° |
| 2026-04-30 20:15 | 38.55443 | -121.37170 | 24133 ft | 460 kts | 49° |
| 2026-04-30 20:16 | 38.57402 | -121.33931 | 24388 ft | 463 kts | 49° |
| 2026-04-30 20:16 | 38.59378 | -121.30670 | 24666 ft | 465 kts | 49° |
| 2026-04-30 20:16 | 38.61360 | -121.27405 | 24961 ft | 466 kts | 49° |
| 2026-04-30 20:16 | 38.63354 | -121.24120 | 25251 ft | 468 kts | 49° |
| 2026-04-30 20:17 | 38.65326 | -121.20870 | 25533 ft | 470 kts | 49° |
| 2026-04-30 20:17 | 38.67329 | -121.17564 | 25826 ft | 471 kts | 49° |
| 2026-04-30 20:17 | 38.69340 | -121.14242 | 26074 ft | 474 kts | 49° |
| 2026-04-30 20:17 | 38.71368 | -121.10892 | 26307 ft | 477 kts | 49° |
| 2026-04-30 20:18 | 38.73398 | -121.07533 | 26578 ft | 478 kts | 49° |
| 2026-04-30 20:18 | 38.75440 | -121.04150 | 26872 ft | 480 kts | 49° |
| 2026-04-30 20:18 | 38.77483 | -121.00759 | 27128 ft | 482 kts | 49° |
| 2026-04-30 20:18 | 38.79534 | -120.97354 | 27356 ft | 484 kts | 49° |
| 2026-04-30 20:19 | 38.81595 | -120.93926 | 27638 ft | 486 kts | 49° |
| 2026-04-30 20:19 | 38.83660 | -120.90485 | 27924 ft | 488 kts | 49° |
| 2026-04-30 20:19 | 38.85735 | -120.87028 | 28166 ft | 489 kts | 49° |
| 2026-04-30 20:19 | 38.87816 | -120.83557 | 28388 ft | 491 kts | 49° |
| 2026-04-30 20:20 | 38.89901 | -120.80076 | 28591 ft | 493 kts | 49° |
| 2026-04-30 20:20 | 38.91995 | -120.76576 | 28791 ft | 495 kts | 49° |
| 2026-04-30 20:20 | 38.94095 | -120.73062 | 29001 ft | 497 kts | 49° |
| 2026-04-30 20:20 | 38.96205 | -120.69529 | 29175 ft | 499 kts | 49° |
| 2026-04-30 20:21 | 38.98319 | -120.65987 | 29341 ft | 501 kts | 49° |
| 2026-04-30 20:21 | 39.00440 | -120.62425 | 29548 ft | 502 kts | 49° |
| 2026-04-30 20:21 | 39.02564 | -120.58852 | 29733 ft | 504 kts | 49° |
| 2026-04-30 20:21 | 39.04694 | -120.55263 | 29923 ft | 505 kts | 49° |
| 2026-04-30 20:22 | 39.06826 | -120.51662 | 30047 ft | 505 kts | 49° |
| 2026-04-30 20:22 | 39.08958 | -120.48058 | 30242 ft | 505 kts | 49° |
| 2026-04-30 20:22 | 39.11088 | -120.44469 | 30464 ft | 505 kts | 49° |
| 2026-04-30 20:22 | 39.13217 | -120.40881 | 30670 ft | 504 kts | 49° |
| 2026-04-30 20:23 | 39.15342 | -120.37291 | 30936 ft | 504 kts | 49° |
| 2026-04-30 20:23 | 39.17467 | -120.33691 | 31168 ft | 504 kts | 49° |
| 2026-04-30 20:23 | 39.19559 | -120.30142 | 31391 ft | 504 kts | 49° |
| 2026-04-30 20:23 | 39.21679 | -120.26541 | 31598 ft | 504 kts | 49° |
| 2026-04-30 20:24 | 39.23796 | -120.22940 | 31825 ft | 504 kts | 49° |
| 2026-04-30 20:24 | 39.25911 | -120.19341 | 32016 ft | 504 kts | 49° |
| 2026-04-30 20:24 | 39.28030 | -120.15730 | 32218 ft | 504 kts | 49° |
| 2026-04-30 20:24 | 39.30141 | -120.12128 | 32421 ft | 504 kts | 49° |
| 2026-04-30 20:25 | 39.34367 | -120.04908 | 32825 ft | 504 kts | 49° |
| 2026-04-30 20:25 | 39.36479 | -120.01294 | 32993 ft | 504 kts | 49° |
| 2026-04-30 20:26 | 39.40714 | -119.94034 | 33086 ft | 507 kts | 49° |
| 2026-04-30 20:26 | 39.47059 | -119.83127 | 33122 ft | 504 kts | 49° |
| 2026-04-30 20:27 | 39.55425 | -119.68680 | 33131 ft | 499 kts | 49° |
| 2026-04-30 20:28 | 39.63748 | -119.54253 | 33081 ft | 500 kts | 49° |
| 2026-04-30 20:30 | 39.74147 | -119.36130 | 33037 ft | 503 kts | 49° |
| 2026-04-30 20:31 | 39.86673 | -119.14156 | 33042 ft | 505 kts | 49° |
| 2026-04-30 20:32 | 39.96535 | -118.95194 | 33078 ft | 506 kts | 52° |
| 2026-04-30 20:33 | 40.01964 | -118.83354 | 33084 ft | 508 kts | 57° |
| 2026-04-30 20:34 | 40.07067 | -118.71247 | 33100 ft | 507 kts | 57° |
| 2026-04-30 20:35 | 40.12187 | -118.59186 | 33061 ft | 506 kts | 56° |
| 2026-04-30 20:35 | 40.17305 | -118.47127 | 33064 ft | 506 kts | 56° |
| 2026-04-30 20:36 | 40.20705 | -118.39085 | 33061 ft | 505 kts | 57° |
| 2026-04-30 20:37 | 40.25795 | -118.26998 | 33060 ft | 505 kts | 56° |
| 2026-04-30 20:37 | 40.29183 | -118.18932 | 33044 ft | 505 kts | 56° |
| 2026-04-30 20:38 | 40.32565 | -118.10864 | 33051 ft | 505 kts | 56° |
| 2026-04-30 20:38 | 40.36029 | -118.02870 | 33061 ft | 504 kts | 55° |
| 2026-04-30 20:39 | 40.41273 | -117.90930 | 33064 ft | 504 kts | 55° |
| 2026-04-30 20:40 | 40.46462 | -117.78996 | 33067 ft | 504 kts | 55° |
| 2026-04-30 20:40 | 40.49928 | -117.70978 | 33062 ft | 504 kts | 55° |
| 2026-04-30 20:41 | 40.55115 | -117.58941 | 33068 ft | 504 kts | 55° |
| 2026-04-30 20:41 | 40.58564 | -117.50908 | 33061 ft | 504 kts | 55° |
| 2026-04-30 20:42 | 40.62009 | -117.42869 | 33077 ft | 505 kts | 55° |
| 2026-04-30 20:43 | 40.67169 | -117.30784 | 33073 ft | 504 kts | 55° |
| 2026-04-30 20:43 | 40.70597 | -117.22732 | 33062 ft | 503 kts | 55° |
| 2026-04-30 20:44 | 40.75717 | -117.10658 | 33109 ft | 502 kts | 55° |
| 2026-04-30 20:45 | 40.82507 | -116.94574 | 33066 ft | 501 kts | 55° |
| 2026-04-30 20:45 | 40.85865 | -116.86590 | 33089 ft | 500 kts | 55° |
| 2026-04-30 20:46 | 40.92610 | -116.70488 | 33066 ft | 501 kts | 55° |
| 2026-04-30 20:47 | 40.97653 | -116.58390 | 33076 ft | 501 kts | 55° |
| 2026-04-30 20:48 | 41.02685 | -116.46272 | 33097 ft | 501 kts | 55° |
| 2026-04-30 20:48 | 41.06035 | -116.38178 | 33089 ft | 501 kts | 55° |
| 2026-04-30 20:49 | 41.09377 | -116.30075 | 33098 ft | 501 kts | 55° |
| 2026-04-30 20:50 | 41.14383 | -116.17903 | 33120 ft | 501 kts | 54° |
| 2026-04-30 20:50 | 41.17714 | -116.09787 | 33109 ft | 501 kts | 55° |
| 2026-04-30 20:51 | 41.20472 | -116.03039 | 33115 ft | 500 kts | 55° |
| 2026-04-30 20:51 | 41.25436 | -115.90852 | 33133 ft | 500 kts | 54° |
| 2026-04-30 20:52 | 41.28741 | -115.82714 | 33120 ft | 500 kts | 54° |
| 2026-04-30 20:53 | 41.33686 | -115.70493 | 33111 ft | 500 kts | 54° |
| 2026-04-30 20:53 | 41.36979 | -115.62335 | 33157 ft | 500 kts | 54° |
| 2026-04-30 20:54 | 41.41898 | -115.50084 | 33133 ft | 500 kts | 54° |
| 2026-04-30 20:55 | 41.46819 | -115.37809 | 33122 ft | 501 kts | 54° |
| 2026-04-30 20:55 | 41.50070 | -115.29657 | 33134 ft | 501 kts | 54° |
| 2026-04-30 20:56 | 41.54964 | -115.17339 | 33131 ft | 501 kts | 54° |
| 2026-04-30 20:57 | 41.59846 | -115.05006 | 33128 ft | 501 kts | 55° |
| 2026-04-30 20:57 | 41.62788 | -114.96508 | 33138 ft | 505 kts | 60° |
| 2026-04-30 20:58 | 41.66909 | -114.83578 | 33122 ft | 503 kts | 60° |
| 2026-04-30 20:58 | 41.69652 | -114.74985 | 33116 ft | 501 kts | 60° |
| 2026-04-30 20:59 | 41.73771 | -114.62139 | 33118 ft | 500 kts | 60° |
| 2026-04-30 21:00 | 41.79205 | -114.45124 | 33121 ft | 499 kts | 60° |
| 2026-04-30 21:01 | 41.83285 | -114.32271 | 33113 ft | 500 kts | 60° |
| 2026-04-30 21:02 | 41.87353 | -114.19392 | 33128 ft | 500 kts | 61° |
| 2026-04-30 21:02 | 41.90057 | -114.10793 | 33124 ft | 501 kts | 61° |
| 2026-04-30 21:03 | 41.92742 | -114.02231 | 33135 ft | 501 kts | 61° |
| 2026-04-30 21:03 | 41.95439 | -113.93602 | 33137 ft | 501 kts | 62° |
| 2026-04-30 21:04 | 41.98133 | -113.84954 | 33131 ft | 502 kts | 62° |
| 2026-04-30 21:04 | 42.02155 | -113.71982 | 33154 ft | 501 kts | 62° |
| 2026-04-30 21:05 | 42.04827 | -113.63334 | 33137 ft | 500 kts | 62° |
| 2026-04-30 21:05 | 42.07487 | -113.54698 | 33120 ft | 499 kts | 62° |
| 2026-04-30 21:06 | 42.10138 | -113.46064 | 33115 ft | 499 kts | 62° |
| 2026-04-30 21:06 | 42.12778 | -113.37435 | 33129 ft | 498 kts | 63° |
| 2026-04-30 21:07 | 42.15411 | -113.28798 | 33119 ft | 498 kts | 63° |
| 2026-04-30 21:07 | 42.18038 | -113.20155 | 33115 ft | 498 kts | 63° |
| 2026-04-30 21:08 | 42.20660 | -113.11503 | 33115 ft | 499 kts | 63° |
| 2026-04-30 21:08 | 42.23261 | -113.02894 | 33118 ft | 499 kts | 64° |
| 2026-04-30 21:09 | 42.25864 | -112.94232 | 33120 ft | 498 kts | 64° |
| 2026-04-30 21:09 | 42.28464 | -112.85564 | 33124 ft | 497 kts | 64° |
| 2026-04-30 21:10 | 42.31054 | -112.76905 | 33151 ft | 497 kts | 64° |
| 2026-04-30 21:10 | 42.33637 | -112.68232 | 33138 ft | 497 kts | 64° |
| 2026-04-30 21:11 | 42.36210 | -112.59567 | 33121 ft | 497 kts | 64° |
| 2026-04-30 21:11 | 42.38775 | -112.50901 | 33135 ft | 496 kts | 64° |
| 2026-04-30 21:12 | 42.41334 | -112.42227 | 33145 ft | 496 kts | 65° |
| 2026-04-30 21:12 | 42.43882 | -112.33557 | 33118 ft | 496 kts | 65° |
| 2026-04-30 21:13 | 42.46423 | -112.24885 | 33125 ft | 495 kts | 65° |
| 2026-04-30 21:13 | 42.48956 | -112.16207 | 33132 ft | 495 kts | 65° |
| 2026-04-30 21:14 | 42.51484 | -112.07524 | 33152 ft | 496 kts | 65° |
| 2026-04-30 21:14 | 42.54008 | -111.98822 | 33154 ft | 496 kts | 65° |
| 2026-04-30 21:15 | 42.56524 | -111.90113 | 33152 ft | 496 kts | 65° |
| 2026-04-30 21:15 | 42.59035 | -111.81394 | 33148 ft | 496 kts | 65° |
| 2026-04-30 21:16 | 42.61538 | -111.72675 | 33162 ft | 496 kts | 65° |
| 2026-04-30 21:16 | 42.64036 | -111.63941 | 33162 ft | 496 kts | 66° |
| 2026-04-30 21:17 | 42.66528 | -111.55198 | 33155 ft | 496 kts | 66° |
| 2026-04-30 21:17 | 42.69009 | -111.46461 | 33173 ft | 496 kts | 66° |
| 2026-04-30 21:18 | 42.71486 | -111.37710 | 33161 ft | 496 kts | 66° |
| 2026-04-30 21:18 | 42.73955 | -111.28960 | 33170 ft | 495 kts | 66° |
| 2026-04-30 21:19 | 42.76402 | -111.20255 | 33167 ft | 496 kts | 66° |
| 2026-04-30 21:19 | 42.78855 | -111.11497 | 33174 ft | 495 kts | 66° |
| 2026-04-30 21:20 | 42.81305 | -111.02720 | 33177 ft | 495 kts | 66° |
| 2026-04-30 21:20 | 42.83745 | -110.93945 | 33177 ft | 495 kts | 66° |
| 2026-04-30 21:21 | 42.86179 | -110.85167 | 33177 ft | 496 kts | 66° |
| 2026-04-30 21:22 | 42.89760 | -110.71927 | 33184 ft | 497 kts | 68° |
| 2026-04-30 21:23 | 42.94465 | -110.54206 | 33182 ft | 497 kts | 68° |
| 2026-04-30 21:23 | 42.97991 | -110.40892 | 33190 ft | 497 kts | 68° |
| 2026-04-30 21:24 | 43.00334 | -110.32005 | 33185 ft | 497 kts | 68° |
| 2026-04-30 21:24 | 43.02668 | -110.23117 | 33191 ft | 497 kts | 68° |
| 2026-04-30 21:25 | 43.06157 | -110.09772 | 33196 ft | 497 kts | 68° |
| 2026-04-30 21:26 | 43.09630 | -109.96415 | 33195 ft | 497 kts | 68° |
| 2026-04-30 21:27 | 43.13091 | -109.83031 | 33204 ft | 498 kts | 68° |
| 2026-04-30 21:27 | 43.15391 | -109.74088 | 33222 ft | 498 kts | 68° |
| 2026-04-30 21:28 | 43.18815 | -109.60724 | 33231 ft | 498 kts | 69° |
| 2026-04-30 21:29 | 43.22239 | -109.47277 | 33458 ft | 498 kts | 69° |
| 2026-04-30 21:29 | 43.25643 | -109.33831 | 34095 ft | 497 kts | 69° |
| 2026-04-30 21:30 | 43.27908 | -109.24846 | 34406 ft | 498 kts | 69° |